Nrp Polar — CTEJ — position and weather

sailwx.info

Track history (hours):
 
Tides and Currents Weather Stations Pressure Air Temp Water Temp Dewpoint Dewpoint Depression Visibility Wind Speed Wind Dir Waves Ship Positions

Nrp Polar

Last reported at 2015-Jul-27 07:17 UTC. Time now 2015-Jul-31 13:25 UTC.
Position N 35°55' W 005°18'.

; draft 3 m.

Type: Sailing vessel. MMSI: 263142000.

Date/timePositionNaut miles runAvg speedWind from/ knotsBaromVisibWave heightAir tempDewpointWater temp
2015-Jul-27 07:17N 35°55' W 005°18'2 2.2
2015-Jul-27 06:33N 35°53' W 005°19'  
2015-Jul-24 11:33N 36°53' W 008°07'7 7.4
2015-Jul-24 10:33N 36°57' W 008°15'7 7.1
2015-Jul-24 09:33N 37°00' W 008°22'7 7.0
2015-Jul-24 08:33N 37°04' W 008°29'4 3.7
2015-Jul-24 07:33N 37°07' W 008°32'0 0.0
2015-Jul-24 06:33N 37°07' W 008°32'0 0.4
2015-Jul-24 05:34N 37°07' W 008°32'0 0.0
2015-Jul-24 04:33N 37°07' W 008°32'0 0.0
2015-Jul-24 03:34N 37°07' W 008°32'0 0.0
2015-Jul-24 02:33N 37°07' W 008°32'0 0.0
2015-Jul-24 01:34N 37°07' W 008°32'0 0.0
2015-Jul-24 00:33N 37°07' W 008°32'0 0.0
2015-Jul-23 23:34N 37°07' W 008°32'0 0.0
2015-Jul-23 22:33N 37°07' W 008°32'0 0.0
2015-Jul-23 21:33N 37°07' W 008°32'0 0.0
2015-Jul-23 20:33N 37°07' W 008°32'0 0.0
2015-Jul-23 19:33N 37°07' W 008°32'0 0.0
2015-Jul-23 18:33N 37°07' W 008°32'0 0.0
2015-Jul-23 17:33N 37°07' W 008°32'0 0.0
2015-Jul-23 16:33N 37°07' W 008°32'0 0.0
2015-Jul-23 15:34N 37°07' W 008°32'0 0.0
2015-Jul-23 14:34N 37°07' W 008°32'0 0.0
2015-Jul-23 13:34N 37°07' W 008°32'0 0.0
2015-Jul-23 12:34N 37°07' W 008°32'0 0.0
2015-Jul-23 11:34N 37°07' W 008°32'0 0.0
2015-Jul-23 10:34N 37°07' W 008°32'0 0.0
2015-Jul-23 09:33N 37°07' W 008°32'0 0.0
2015-Jul-22 17:09N 37°07' W 008°32'1 1.7
2015-Jul-22 16:33N 37°06' W 008°32'6 6.4
2015-Jul-22 15:33N 37°03' W 008°39'7 6.7
2015-Jul-22 14:33N 37°01' W 008°47'16 4.9
2015-Jul-22 11:17N 37°13' W 009°00'15 7.5
2015-Jul-22 09:17N 37°27' W 008°57'5 7.2
2015-Jul-22 08:33N 37°33' W 008°57'7 7.2
2015-Jul-22 07:32N 37°40' W 008°56'7 7.5
2015-Jul-22 06:33N 37°47' W 008°54'7 7.3
2015-Jul-22 05:33N 37°54' W 008°53'3 2.7
2015-Jul-22 04:33N 37°57' W 008°52'0 0.0
2015-Jul-21 22:22N 37°57' W 008°52'0 0.0
2015-Jul-21 21:33N 37°57' W 008°52'0 0.0
2015-Jul-21 20:33N 37°57' W 008°52'0 0.0
2015-Jul-21 19:33N 37°57' W 008°52'0 0.0
2015-Jul-21 18:33N 37°57' W 008°52'0 0.0
2015-Jul-21 17:33N 37°57' W 008°52'0 0.0
2015-Jul-21 16:33N 37°57' W 008°52'0 0.0
2015-Jul-21 15:33N 37°57' W 008°52'0 0.0
2015-Jul-21 14:33N 37°57' W 008°52'0 0.0
2015-Jul-21 13:33N 37°57' W 008°52'0 0.0
2015-Jul-21 12:33N 37°57' W 008°52'0 0.0
2015-Jul-21 11:33N 37°57' W 008°52'0 0.0
2015-Jul-20 19:05N 37°57' W 008°52'0 0.3
2015-Jul-20 18:33N 37°57' W 008°52'5 5.0
2015-Jul-20 17:33N 38°00' W 008°57'8 7.7
2015-Jul-20 16:33N 38°07' W 009°02'8 7.9
2015-Jul-20 15:33N 38°14' W 009°07'8 7.9
2015-Jul-20 14:33N 38°21' W 009°12'8 7.6
2015-Jul-20 13:33N 38°28' W 009°15'7 6.8
2015-Jul-20 12:32N 38°34' W 009°18'6 6.0
2015-Jul-20 11:33N 38°40' W 009°18'8 7.7
2015-Jul-20 10:33N 38°41' W 009°09'1 1.1
2015-Jul-20 09:33N 38°40' W 009°09'0 0.0
2015-Jul-20 08:33N 38°40' W 009°09'0 0.0
2015-Jul-20 07:33N 38°40' W 009°09'0 0.0
2015-Jul-20 06:33N 38°40' W 009°09'  
Track history (hours):
 
Tides and Currents Weather Stations Pressure Air Temp Water Temp Dewpoint Dewpoint Depression Visibility Wind Speed Wind Dir Waves Ship Positions

Nrp Polar

Last reported at 2015-Jul-27 07:17 UTC. Time now 2015-Jul-31 13:25 UTC.
Position N 35°55' W 005°18'.

; draft 3 m.

Type: Sailing vessel. MMSI: 263142000.

Date/timePositionNaut miles runAvg speedWind from/ knotsBaromVisibWave heightAir tempDewpointWater temp
2015-Jul-27 07:17N 35°55' W 005°18'2 2.2
2015-Jul-27 06:33N 35°53' W 005°19'  
2015-Jul-24 11:33N 36°53' W 008°07'7 7.4
2015-Jul-24 10:33N 36°57' W 008°15'7 7.1
2015-Jul-24 09:33N 37°00' W 008°22'7 7.0
2015-Jul-24 08:33N 37°04' W 008°29'4 3.7
2015-Jul-24 07:33N 37°07' W 008°32'0 0.0
2015-Jul-24 06:33N 37°07' W 008°32'0 0.4
2015-Jul-24 05:34N 37°07' W 008°32'0 0.0
2015-Jul-24 04:33N 37°07' W 008°32'0 0.0
2015-Jul-24 03:34N 37°07' W 008°32'0 0.0
2015-Jul-24 02:33N 37°07' W 008°32'0 0.0
2015-Jul-24 01:34N 37°07' W 008°32'0 0.0
2015-Jul-24 00:33N 37°07' W 008°32'0 0.0
2015-Jul-23 23:34N 37°07' W 008°32'0 0.0
2015-Jul-23 22:33N 37°07' W 008°32'0 0.0
2015-Jul-23 21:33N 37°07' W 008°32'0 0.0
2015-Jul-23 20:33N 37°07' W 008°32'0 0.0
2015-Jul-23 19:33N 37°07' W 008°32'0 0.0
2015-Jul-23 18:33N 37°07' W 008°32'0 0.0
2015-Jul-23 17:33N 37°07' W 008°32'0 0.0
2015-Jul-23 16:33N 37°07' W 008°32'0 0.0
2015-Jul-23 15:34N 37°07' W 008°32'0 0.0
2015-Jul-23 14:34N 37°07' W 008°32'0 0.0
2015-Jul-23 13:34N 37°07' W 008°32'0 0.0
2015-Jul-23 12:34N 37°07' W 008°32'0 0.0
2015-Jul-23 11:34N 37°07' W 008°32'0 0.0
2015-Jul-23 10:34N 37°07' W 008°32'0 0.0
2015-Jul-23 09:33N 37°07' W 008°32'0 0.0
2015-Jul-22 17:09N 37°07' W 008°32'1 1.7
2015-Jul-22 16:33N 37°06' W 008°32'6 6.4
2015-Jul-22 15:33N 37°03' W 008°39'7 6.7
2015-Jul-22 14:33N 37°01' W 008°47'16 4.9
2015-Jul-22 11:17N 37°13' W 009°00'15 7.5
2015-Jul-22 09:17N 37°27' W 008°57'5 7.2
2015-Jul-22 08:33N 37°33' W 008°57'7 7.2
2015-Jul-22 07:32N 37°40' W 008°56'7 7.5
2015-Jul-22 06:33N 37°47' W 008°54'7 7.3
2015-Jul-22 05:33N 37°54' W 008°53'3 2.7
2015-Jul-22 04:33N 37°57' W 008°52'0 0.0
2015-Jul-21 22:22N 37°57' W 008°52'0 0.0
2015-Jul-21 21:33N 37°57' W 008°52'0 0.0
2015-Jul-21 20:33N 37°57' W 008°52'0 0.0
2015-Jul-21 19:33N 37°57' W 008°52'0 0.0
2015-Jul-21 18:33N 37°57' W 008°52'0 0.0
2015-Jul-21 17:33N 37°57' W 008°52'0 0.0
2015-Jul-21 16:33N 37°57' W 008°52'0 0.0
2015-Jul-21 15:33N 37°57' W 008°52'0 0.0
2015-Jul-21 14:33N 37°57' W 008°52'0 0.0
2015-Jul-21 13:33N 37°57' W 008°52'0 0.0
2015-Jul-21 12:33N 37°57' W 008°52'0 0.0
2015-Jul-21 11:33N 37°57' W 008°52'0 0.0
2015-Jul-20 19:05N 37°57' W 008°52'0 0.3
2015-Jul-20 18:33N 37°57' W 008°52'5 5.0
2015-Jul-20 17:33N 38°00' W 008°57'8 7.7
2015-Jul-20 16:33N 38°07' W 009°02'8 7.9
2015-Jul-20 15:33N 38°14' W 009°07'8 7.9
2015-Jul-20 14:33N 38°21' W 009°12'8 7.6
2015-Jul-20 13:33N 38°28' W 009°15'7 6.8
2015-Jul-20 12:32N 38°34' W 009°18'6 6.0
2015-Jul-20 11:33N 38°40' W 009°18'8 7.7
2015-Jul-20 10:33N 38°41' W 009°09'1 1.1
2015-Jul-20 09:33N 38°40' W 009°09'0 0.0
2015-Jul-20 08:33N 38°40' W 009°09'0 0.0
2015-Jul-20 07:33N 38°40' W 009°09'0 0.0
2015-Jul-20 06:33N 38°40' W 009°09'  

Dump ship's entire track history